Time;durP1;ratioP1;P1;durP2;ratioP2;P2;SDS_P1;SDS_P2;PMS_P1;PMS_P2;Temp;Humidity;BMP_temperature;BMP_pressure;BME280_temperature;BME280_humidity;BME280_pressure;Samples;Min_cycle;Max_cycle;Signal;HPM_P1;HPM_P2
2022/08/20 00:01:16;;;;;;;;;;;16.70;99.90;;;;;;4214846;28;19993;-58
2022/08/20 00:03:20;;;;;;;;;;;16.80;99.90;;;;;;4214624;28;20372;-58
2022/08/20 00:05:25;;;;;;;;;;;16.80;99.90;;;;;;4214933;28;19924;-57
2022/08/20 00:07:28;;;;;;;;;;;16.80;99.90;;;;;;4214438;28;19934;-57
2022/08/20 00:09:30;;;;;;;;;;;16.80;99.90;;;;;;4214402;28;20030;-57
2022/08/20 00:11:32;;;;;;;;;;;16.80;99.90;;;;;;4214644;28;20072;-57
2022/08/20 00:13:42;;;;;;;;;;;16.80;99.90;;;;;;4214534;28;20019;-57
2022/08/20 00:15:44;;;;;;;;;;;16.60;99.90;;;;;;4214669;28;20450;-57
2022/08/20 00:17:49;;;;;;;;;;;16.60;99.90;;;;;;4214649;28;20080;-56
2022/08/20 00:19:51;;;;;;;;;;;16.60;99.90;;;;;;4214439;28;19928;-56
2022/08/20 00:21:53;;;;;;;;;;;16.70;99.90;;;;;;4214415;28;19924;-56
2022/08/20 00:23:59;;;;;;;;;;;16.60;99.90;;;;;;4230054;28;19927;-57
2022/08/20 00:26:01;;;;;;;;;;;16.60;99.90;;;;;;4213941;28;19946;-57
2022/08/20 00:28:03;;;;;;;;;;;16.60;99.90;;;;;;4214557;28;20019;-56
2022/08/20 00:30:08;;;;;;;;;;;16.70;99.90;;;;;;4214352;28;19979;-56
2022/08/20 00:32:10;;;;;;;;;;;16.50;99.90;;;;;;4213666;28;19928;-56
2022/08/20 00:34:11;;;;;;;;;;;16.30;99.90;;;;;;4214308;28;19928;-56
2022/08/20 00:36:16;;;;;;;;;;;16.30;99.90;;;;;;4213939;28;20448;-56
2022/08/20 00:38:18;;;;;;;;;;;16.50;99.90;;;;;;4214000;28;20476;-57
2022/08/20 00:40:22;;;;;;;;;;;16.40;99.90;;;;;;4214002;28;19930;-56
2022/08/20 00:42:24;;;;;;;;;;;16.20;99.90;;;;;;4195637;28;20227;-57
2022/08/20 00:44:26;;;;;;;;;;;16.20;99.90;;;;;;4213667;28;19932;-57
2022/08/20 00:46:29;;;;;;;;;;;16.30;99.90;;;;;;4213549;28;19924;-57
2022/08/20 00:48:33;;;;;;;;;;;16.40;99.90;;;;;;4213846;28;19924;-57
2022/08/20 00:50:36;;;;;;;;;;;16.30;99.90;;;;;;4213918;28;19974;-56
2022/08/20 00:52:41;;;;;;;;;;;16.20;99.90;;;;;;4213364;28;20007;-56
2022/08/20 00:54:52;;;;;;;;;;;16.10;99.90;;;;;;4213439;28;19993;-57
2022/08/20 00:57:03;;;;;;;;;;;16.00;99.90;;;;;;4213544;28;20674;-57
2022/08/20 00:59:10;;;;;;;;;;;16.00;99.90;;;;;;4195802;28;20434;-57
2022/08/20 01:01:12;;;;;;;;;;;15.90;99.90;;;;;;4195511;28;19928;-56
2022/08/20 01:03:15;;;;;;;;;;;15.90;99.90;;;;;;4213369;28;20367;-56
2022/08/20 01:05:17;;;;;;;;;;;16.00;99.90;;;;;;4214065;28;20396;-57
2022/08/20 01:07:23;;;;;;;;;;;16.00;99.90;;;;;;4213358;28;19924;-58
2022/08/20 01:09:25;;;;;;;;;;;15.90;99.90;;;;;;4213882;28;20006;-56
2022/08/20 01:11:47;;;;;;;;;;;15.80;99.90;;;;;;4213733;28;19955;-56
2022/08/20 01:13:49;;;;;;;;;;;15.70;99.90;;;;;;4213340;28;19932;-57
2022/08/20 01:15:53;;;;;;;;;;;15.70;99.90;;;;;;4213518;28;19928;-57
2022/08/20 01:17:59;;;;;;;;;;;15.60;99.90;;;;;;4213256;28;20315;-57
2022/08/20 01:20:06;;;;;;;;;;;15.60;99.90;;;;;;4213423;28;19955;-56
2022/08/20 01:24:34;;;;;;;;;;;15.80;99.90;;;;;;4213272;28;19966;-57
2022/08/20 01:26:37;;;;;;;;;;;15.70;99.90;;;;;;4194883;28;19928;-57
2022/08/20 01:28:43;;;;;;;;;;;15.70;99.90;;;;;;4213253;28;20272;-56
2022/08/20 01:30:45;;;;;;;;;;;15.80;99.90;;;;;;4212915;28;20407;-57
2022/08/20 01:32:47;;;;;;;;;;;15.90;99.90;;;;;;4212967;28;19932;-57
2022/08/20 01:34:49;;;;;;;;;;;15.80;99.90;;;;;;4212789;28;19928;-57
2022/08/20 01:36:52;;;;;;;;;;;15.70;99.90;;;;;;4212911;28;20011;-57
2022/08/20 01:38:54;;;;;;;;;;;15.80;99.90;;;;;;4213122;28;19932;-56
2022/08/20 01:41:05;;;;;;;;;;;15.70;99.90;;;;;;4212868;28;19928;-58
2022/08/20 01:43:07;;;;;;;;;;;15.80;99.90;;;;;;4212439;28;19932;-58
2022/08/20 01:45:09;;;;;;;;;;;15.80;99.90;;;;;;4212914;28;20316;-57
2022/08/20 01:47:14;;;;;;;;;;;15.80;99.90;;;;;;4212624;28;19931;-56
2022/08/20 01:49:36;;;;;;;;;;;15.80;99.90;;;;;;4212738;28;19952;-58
2022/08/20 01:51:39;;;;;;;;;;;15.80;99.90;;;;;;4194616;28;20027;-57
2022/08/20 01:53:44;;;;;;;;;;;15.80;99.90;;;;;;4212944;28;19928;-57
2022/08/20 01:55:46;;;;;;;;;;;15.80;99.90;;;;;;4194263;28;19932;-57
2022/08/20 01:57:49;;;;;;;;;;;15.90;99.90;;;;;;4212602;28;19928;-57
2022/08/20 01:59:53;;;;;;;;;;;15.80;99.90;;;;;;4212862;28;19973;-57
2022/08/20 02:01:56;;;;;;;;;;;15.70;99.90;;;;;;4212743;28;19928;-57
2022/08/20 02:03:58;;;;;;;;;;;15.70;99.90;;;;;;4212600;28;20011;-56
2022/08/20 02:06:01;;;;;;;;;;;15.70;99.90;;;;;;4194285;28;20396;-56
2022/08/20 02:08:03;;;;;;;;;;;15.70;99.90;;;;;;4212432;28;20019;-57
2022/08/20 02:10:06;;;;;;;;;;;15.80;99.90;;;;;;4194334;28;20028;-58
2022/08/20 02:12:09;;;;;;;;;;;15.80;99.90;;;;;;4212639;28;20400;-56
2022/08/20 02:14:11;;;;;;;;;;;15.70;99.90;;;;;;4212646;28;19928;-56
2022/08/20 02:16:13;;;;;;;;;;;15.70;99.90;;;;;;4212557;28;20354;-57
2022/08/20 02:18:15;;;;;;;;;;;15.60;99.90;;;;;;4195759;28;19978;-56
2022/08/20 02:20:22;;;;;;;;;;;15.60;99.90;;;;;;4203025;28;20371;-57
2022/08/20 02:22:43;;;;;;;;;;;15.70;99.90;;;;;;4212306;28;20448;-56
2022/08/20 02:24:50;;;;;;;;;;;15.70;99.90;;;;;;4195820;28;19928;-56
2022/08/20 02:26:53;;;;;;;;;;;15.60;99.90;;;;;;4204340;28;19928;-56
2022/08/20 02:28:56;;;;;;;;;;;15.60;99.90;;;;;;4212483;28;19928;-55
2022/08/20 02:30:59;;;;;;;;;;;15.60;99.90;;;;;;4194344;28;19932;-57
2022/08/20 02:33:02;;;;;;;;;;;15.60;99.90;;;;;;4212222;28;19935;-57
2022/08/20 02:35:07;;;;;;;;;;;15.50;99.90;;;;;;4193908;28;20383;-57
2022/08/20 02:37:09;;;;;;;;;;;15.40;99.90;;;;;;4212215;28;19935;-56
2022/08/20 02:39:11;;;;;;;;;;;15.50;99.90;;;;;;4194066;28;19932;-57
2022/08/20 02:41:14;;;;;;;;;;;15.50;99.90;;;;;;4212537;28;19963;-57
2022/08/20 02:43:17;;;;;;;;;;;15.40;99.90;;;;;;4211712;28;19993;-57
2022/08/20 02:45:21;;;;;;;;;;;15.30;99.90;;;;;;4212047;28;20386;-56
2022/08/20 02:47:23;;;;;;;;;;;15.30;99.90;;;;;;4211772;28;19924;-56
2022/08/20 02:49:25;;;;;;;;;;;15.20;99.90;;;;;;4212043;28;19928;-57
2022/08/20 02:51:27;;;;;;;;;;;15.30;99.90;;;;;;4212011;28;20403;-56
2022/08/20 02:53:33;;;;;;;;;;;15.30;99.90;;;;;;4212175;28;20266;-58
2022/08/20 02:55:35;;;;;;;;;;;15.40;99.90;;;;;;4211659;28;19969;-56
2022/08/20 02:57:37;;;;;;;;;;;15.50;99.90;;;;;;4211991;28;19935;-58
2022/08/20 02:59:42;;;;;;;;;;;15.50;99.90;;;;;;4212185;28;19924;-56
2022/08/20 03:01:44;;;;;;;;;;;15.40;99.90;;;;;;4211738;28;19979;-57
2022/08/20 03:03:46;;;;;;;;;;;15.40;99.90;;;;;;4212346;28;20382;-57
2022/08/20 03:05:50;;;;;;;;;;;15.40;99.90;;;;;;4211735;28;20453;-57
2022/08/20 03:07:52;;;;;;;;;;;15.50;99.90;;;;;;4211999;28;19927;-56
2022/08/20 03:09:54;;;;;;;;;;;15.50;99.90;;;;;;4212022;28;19974;-57
2022/08/20 03:11:56;;;;;;;;;;;15.50;99.90;;;;;;4211926;28;19978;-56
2022/08/20 03:13:58;;;;;;;;;;;15.40;99.90;;;;;;4211783;28;20318;-56
2022/08/20 03:16:01;;;;;;;;;;;15.50;99.90;;;;;;4213045;28;20344;-56
2022/08/20 03:18:02;;;;;;;;;;;15.50;99.90;;;;;;4215092;28;19928;-56
2022/08/20 03:20:06;;;;;;;;;;;15.40;99.90;;;;;;4215503;28;20383;-57
2022/08/20 03:22:08;;;;;;;;;;;15.50;99.90;;;;;;4215123;28;19928;-56
2022/08/20 03:24:10;;;;;;;;;;;15.50;99.90;;;;;;4215356;28;19932;-57
2022/08/20 03:26:12;;;;;;;;;;;15.50;99.90;;;;;;4197440;28;19928;-57
2022/08/20 03:28:15;;;;;;;;;;;15.50;99.90;;;;;;4214632;28;20339;-59
2022/08/20 03:30:18;;;;;;;;;;;15.60;99.90;;;;;;4215085;28;20010;-57
2022/08/20 03:32:20;;;;;;;;;;;15.70;99.90;;;;;;4214788;28;19966;-57
2022/08/20 03:34:21;;;;;;;;;;;15.70;99.90;;;;;;4180349;28;20475;-56
2022/08/20 03:36:24;;;;;;;;;;;15.70;99.90;;;;;;4215107;28;19928;-57
2022/08/20 03:38:29;;;;;;;;;;;15.70;99.90;;;;;;4215177;28;20015;-57
2022/08/20 03:40:33;;;;;;;;;;;15.60;99.90;;;;;;4214937;28;19924;-57
2022/08/20 03:42:36;;;;;;;;;;;15.70;99.90;;;;;;4214479;28;19969;-56
2022/08/20 03:44:38;;;;;;;;;;;15.60;99.90;;;;;;4214686;28;20292;-57
2022/08/20 03:46:40;;;;;;;;;;;15.70;99.90;;;;;;4214654;28;19949;-56
2022/08/20 03:48:42;;;;;;;;;;;15.60;99.90;;;;;;4215134;28;19928;-57
2022/08/20 03:50:44;;;;;;;;;;;15.60;99.90;;;;;;4214853;28;19935;-56
2022/08/20 03:52:49;;;;;;;;;;;15.50;99.90;;;;;;4215271;28;19934;-57
2022/08/20 03:54:51;;;;;;;;;;;15.40;99.90;;;;;;4214470;28;19935;-58
2022/08/20 03:56:53;;;;;;;;;;;15.50;99.90;;;;;;4214636;28;19977;-57
2022/08/20 03:58:55;;;;;;;;;;;15.50;99.90;;;;;;4214563;28;19928;-56
2022/08/20 04:00:57;;;;;;;;;;;15.40;99.90;;;;;;4214574;28;20463;-57
2022/08/20 04:02:59;;;;;;;;;;;15.60;99.90;;;;;;4196476;28;19978;-58
2022/08/20 04:05:01;;;;;;;;;;;15.60;99.90;;;;;;4196064;28;20392;-56
2022/08/20 04:07:11;;;;;;;;;;;15.60;99.90;;;;;;4214871;28;20410;-57
2022/08/20 04:09:13;;;;;;;;;;;15.70;99.90;;;;;;4214298;28;19924;-57
2022/08/20 04:11:15;;;;;;;;;;;15.70;99.90;;;;;;4196407;28;20468;-57
2022/08/20 04:13:19;;;;;;;;;;;15.70;99.90;;;;;;4196835;28;19954;-57
2022/08/20 04:15:22;;;;;;;;;;;15.70;99.90;;;;;;4214055;28;19970;-56
2022/08/20 04:17:24;;;;;;;;;;;15.60;99.90;;;;;;4214406;28;20283;-56
2022/08/20 04:19:26;;;;;;;;;;;15.60;99.90;;;;;;4214061;28;20455;-56
2022/08/20 04:21:33;;;;;;;;;;;15.60;99.90;;;;;;4214498;28;19924;-56
2022/08/20 04:23:35;;;;;;;;;;;15.60;99.90;;;;;;4214293;28;19932;-56
2022/08/20 04:25:40;;;;;;;;;;;15.50;99.90;;;;;;4214176;28;20714;-58
2022/08/20 04:27:45;;;;;;;;;;;15.60;99.90;;;;;;4212937;28;19939;-57
2022/08/20 04:29:47;;;;;;;;;;;15.60;99.90;;;;;;4214430;28;20037;-58
2022/08/20 04:31:49;;;;;;;;;;;15.60;99.90;;;;;;4214056;28;19981;-57
2022/08/20 04:33:51;;;;;;;;;;;15.50;99.90;;;;;;4214153;28;19978;-56
2022/08/20 04:35:54;;;;;;;;;;;15.50;99.90;;;;;;4214014;28;19928;-56
2022/08/20 04:37:57;;;;;;;;;;;15.50;99.90;;;;;;4214142;28;20019;-57
2022/08/20 04:42:24;;;;;;;;;;;15.40;99.90;;;;;;4213584;28;19928;-57
2022/08/20 04:44:26;;;;;;;;;;;15.40;99.90;;;;;;4214085;28;19970;-57
2022/08/20 04:46:31;;;;;;;;;;;15.40;99.90;;;;;;4195442;28;19979;-56
2022/08/20 04:48:33;;;;;;;;;;;15.40;99.90;;;;;;4214028;28;19924;-57
2022/08/20 04:50:36;;;;;;;;;;;15.50;99.90;;;;;;4213734;28;20003;-58
2022/08/20 04:52:38;;;;;;;;;;;15.50;99.90;;;;;;4213915;28;20030;-56
2022/08/20 04:54:40;;;;;;;;;;;15.50;99.90;;;;;;4213700;28;19935;-56
2022/08/20 04:56:42;;;;;;;;;;;15.50;99.90;;;;;;4213697;28;20383;-57
2022/08/20 04:58:49;;;;;;;;;;;15.70;99.90;;;;;;4213894;28;19924;-57
2022/08/20 05:00:52;;;;;;;;;;;15.70;99.90;;;;;;4195379;28;19935;-56
2022/08/20 05:02:54;;;;;;;;;;;15.60;99.90;;;;;;4213643;28;19928;-56
2022/08/20 05:04:55;;;;;;;;;;;15.60;99.90;;;;;;4213887;28;19928;-57
2022/08/20 05:06:57;;;;;;;;;;;15.60;99.90;;;;;;4195436;28;19955;-56
2022/08/20 05:08:59;;;;;;;;;;;15.60;99.90;;;;;;4213486;28;19924;-57
2022/08/20 05:11:01;;;;;;;;;;;15.60;99.90;;;;;;4213447;28;19932;-57
2022/08/20 05:13:24;;;;;;;;;;;15.60;99.90;;;;;;4213355;28;19973;-57
2022/08/20 05:15:28;;;;;;;;;;;15.60;99.90;;;;;;4195135;28;20241;-58
2022/08/20 05:17:30;;;;;;;;;;;15.50;99.90;;;;;;4213248;28;20407;-56
2022/08/20 05:19:33;;;;;;;;;;;15.50;99.90;;;;;;4213583;28;20463;-57
2022/08/20 05:21:39;;;;;;;;;;;15.50;99.90;;;;;;4194999;28;19928;-57
2022/08/20 05:23:41;;;;;;;;;;;15.50;99.90;;;;;;4195401;28;19924;-56
2022/08/20 05:25:44;;;;;;;;;;;15.40;99.90;;;;;;4211941;28;20027;-57
2022/08/20 05:27:46;;;;;;;;;;;15.40;99.90;;;;;;4197851;28;19934;-56
2022/08/20 05:29:49;;;;;;;;;;;15.40;99.90;;;;;;4213185;28;19931;-57
2022/08/20 05:31:50;;;;;;;;;;;15.40;99.90;;;;;;4213068;28;19935;-56
2022/08/20 05:33:55;;;;;;;;;;;15.40;99.90;;;;;;4213219;28;20384;-57
2022/08/20 05:35:57;;;;;;;;;;;15.40;99.90;;;;;;4212788;28;20297;-56
2022/08/20 05:38:00;;;;;;;;;;;15.40;99.90;;;;;;4213235;28;19924;-56
2022/08/20 05:40:06;;;;;;;;;;;15.50;99.90;;;;;;4195128;28;20392;-57
2022/08/20 05:42:10;;;;;;;;;;;15.40;99.90;;;;;;4212734;28;19938;-57
2022/08/20 05:44:13;;;;;;;;;;;15.50;99.90;;;;;;4220277;28;19961;-57
2022/08/20 05:46:16;;;;;;;;;;;15.50;99.90;;;;;;4217667;28;20389;-56
2022/08/20 05:48:20;;;;;;;;;;;15.60;99.90;;;;;;4212228;28;19936;-58
2022/08/20 05:50:23;;;;;;;;;;;15.60;99.90;;;;;;4212800;28;19971;-56
2022/08/20 05:52:25;;;;;;;;;;;15.60;99.90;;;;;;4212940;28;19990;-56
2022/08/20 05:54:27;;;;;;;;;;;15.60;99.90;;;;;;4213327;28;19924;-57
2022/08/20 05:56:29;;;;;;;;;;;15.70;99.90;;;;;;4212582;28;19935;-58
2022/08/20 05:58:32;;;;;;;;;;;15.60;99.90;;;;;;4212757;28;19967;-58
2022/08/20 06:00:34;;;;;;;;;;;15.80;99.90;;;;;;4212703;28;20345;-56
2022/08/20 06:04:57;;;;;;;;;;;16.00;99.90;;;;;;4212807;28;19924;-57
2022/08/20 06:07:05;;;;;;;;;;;16.00;99.90;;;;;;4194252;28;20482;-57
2022/08/20 06:09:07;;;;;;;;;;;16.00;99.90;;;;;;4212364;28;19932;-56
2022/08/20 06:11:09;;;;;;;;;;;16.10;99.90;;;;;;4212423;28;20404;-57
2022/08/20 06:13:11;;;;;;;;;;;16.10;99.90;;;;;;4212390;28;20027;-59
2022/08/20 06:15:14;;;;;;;;;;;16.20;99.90;;;;;;4212052;28;19973;-60
2022/08/20 06:17:17;;;;;;;;;;;16.30;99.90;;;;;;4210768;28;19924;-59
2022/08/20 06:19:19;;;;;;;;;;;16.20;99.90;;;;;;4211063;28;19933;-60
2022/08/20 06:21:26;;;;;;;;;;;16.20;99.90;;;;;;4211001;28;20338;-61
2022/08/20 06:23:28;;;;;;;;;;;16.30;99.90;;;;;;4212031;28;19935;-60
2022/08/20 06:25:51;;;;;;;;;;;16.20;99.90;;;;;;4212436;28;19925;-60
2022/08/20 06:27:53;;;;;;;;;;;16.30;99.90;;;;;;4212485;28;19931;-60
2022/08/20 06:29:56;;;;;;;;;;;16.40;99.90;;;;;;4212274;28;19941;-60
2022/08/20 06:31:58;;;;;;;;;;;16.60;99.90;;;;;;4212391;28;19924;-61
2022/08/20 06:34:00;;;;;;;;;;;16.60;99.90;;;;;;4212052;28;19924;-61
2022/08/20 06:36:02;;;;;;;;;;;16.70;99.90;;;;;;4212023;28;19928;-60
2022/08/20 06:38:04;;;;;;;;;;;16.70;99.90;;;;;;4194175;28;20368;-59
2022/08/20 06:40:09;;;;;;;;;;;16.70;99.90;;;;;;4212394;28;19927;-60
2022/08/20 06:42:12;;;;;;;;;;;16.70;99.90;;;;;;4200758;28;20054;-59
2022/08/20 06:44:14;;;;;;;;;;;16.80;99.90;;;;;;4208652;28;20269;-60
2022/08/20 06:46:15;;;;;;;;;;;16.80;99.90;;;;;;4212185;28;19982;-60
2022/08/20 06:48:17;;;;;;;;;;;16.80;99.90;;;;;;4211686;28;19924;-60
2022/08/20 06:50:22;;;;;;;;;;;17.00;99.90;;;;;;4211750;28;20606;-60
2022/08/20 06:52:24;;;;;;;;;;;17.10;99.90;;;;;;4211828;28;20302;-60
2022/08/20 06:54:35;;;;;;;;;;;16.90;99.90;;;;;;4193898;28;19929;-60
2022/08/20 06:56:37;;;;;;;;;;;16.90;99.90;;;;;;4211341;28;19930;-61
2022/08/20 06:58:40;;;;;;;;;;;16.90;99.90;;;;;;4194071;28;20388;-60
2022/08/20 07:00:42;;;;;;;;;;;17.00;99.90;;;;;;4211894;28;19997;-60
2022/08/20 07:02:45;;;;;;;;;;;17.20;99.90;;;;;;4211726;28;19924;-60
2022/08/20 07:04:47;;;;;;;;;;;17.30;99.90;;;;;;4212043;28;20311;-60
2022/08/20 07:06:50;;;;;;;;;;;17.30;99.90;;;;;;4211695;28;19932;-61
2022/08/20 07:08:53;;;;;;;;;;;17.20;99.90;;;;;;4212005;28;19950;-60
2022/08/20 07:10:56;;;;;;;;;;;17.30;99.90;;;;;;4211721;28;19960;-60
2022/08/20 07:12:58;;;;;;;;;;;17.40;99.90;;;;;;4211501;28;20027;-60
2022/08/20 07:15:02;;;;;;;;;;;17.40;99.90;;;;;;4216127;28;19925;-62
2022/08/20 07:17:05;;;;;;;;;;;17.50;99.90;;;;;;4208218;28;19932;-60
2022/08/20 07:19:07;;;;;;;;;;;17.50;99.90;;;;;;4211829;28;19950;-61
2022/08/20 07:21:10;;;;;;;;;;;17.50;99.90;;;;;;4210946;28;19932;-60
2022/08/20 07:23:13;;;;;;;;;;;17.40;99.90;;;;;;4219138;28;19981;-60
2022/08/20 07:25:15;;;;;;;;;;;17.50;99.90;;;;;;4201496;28;20427;-60
2022/08/20 07:27:21;;;;;;;;;;;17.90;99.90;;;;;;4218672;28;20417;-61
2022/08/20 07:32:33;;;;;;;;;;;18.30;99.90;;;;;;4218929;28;19962;-61
2022/08/20 07:34:05;;;;;;;;;;;19.30;99.90;;;;;;4194473;28;19937;-60
2022/08/20 07:36:07;;;;;;;;;;;19.70;99.90;;;;;;4209330;28;19931;-60
2022/08/20 07:38:16;;;;;;;;;;;20.10;99.90;;;;;;4212201;28;19932;-61
2022/08/20 07:40:29;;;;;;;;;;;20.50;99.90;;;;;;4211651;28;20372;-60
2022/08/20 07:42:31;;;;;;;;;;;20.70;99.90;;;;;;4214866;28;19924;-62
2022/08/20 07:44:33;;;;;;;;;;;20.90;99.90;;;;;;4194443;28;20522;-60
2022/08/20 07:46:35;;;;;;;;;;;21.00;99.90;;;;;;4209354;28;19946;-60
2022/08/20 07:48:38;;;;;;;;;;;21.10;99.90;;;;;;4211670;28;20003;-60
2022/08/20 07:50:40;;;;;;;;;;;21.20;99.90;;;;;;4211705;28;20302;-60
2022/08/20 07:52:44;;;;;;;;;;;21.20;99.90;;;;;;4211457;28;19927;-61
2022/08/20 07:54:46;;;;;;;;;;;21.60;99.90;;;;;;4211521;28;20307;-60
2022/08/20 07:56:48;;;;;;;;;;;21.70;99.90;;;;;;4211378;28;20026;-61
2022/08/20 07:58:51;;;;;;;;;;;21.70;99.90;;;;;;4211712;28;19932;-61
2022/08/20 08:00:53;;;;;;;;;;;22.00;99.90;;;;;;4211497;28;20005;-60
2022/08/20 08:02:55;;;;;;;;;;;22.30;99.90;;;;;;4212341;27;19928;-61
2022/08/20 08:04:57;;;;;;;;;;;22.60;99.90;;;;;;4217948;28;19969;-61
2022/08/20 08:06:59;;;;;;;;;;;22.70;99.90;;;;;;4199357;28;19939;-60
2022/08/20 08:09:03;;;;;;;;;;;22.80;99.90;;;;;;4195586;28;19928;-60
2022/08/20 08:11:06;;;;;;;;;;;22.70;99.90;;;;;;4195601;28;20029;-61
2022/08/20 08:13:10;;;;;;;;;;;22.80;99.90;;;;;;4214045;28;19966;-61
2022/08/20 08:15:17;;;;;;;;;;;23.30;99.90;;;;;;4210516;28;19973;-60
2022/08/20 08:17:19;;;;;;;;;;;23.90;99.90;;;;;;4214103;28;19998;-61
2022/08/20 08:19:22;;;;;;;;;;;24.30;99.90;;;;;;4214252;28;20375;-61
2022/08/20 08:21:24;;;;;;;;;;;24.40;99.90;;;;;;4214069;28;19931;-60
2022/08/20 08:23:27;;;;;;;;;;;24.40;99.90;;;;;;4196067;28;19967;-61
2022/08/20 08:25:33;;;;;;;;;;;24.40;99.90;;;;;;4214508;28;19928;-60
2022/08/20 08:27:35;;;;;;;;;;;24.60;99.90;;;;;;4214124;28;19928;-60
2022/08/20 08:29:37;;;;;;;;;;;24.70;99.90;;;;;;4214105;28;19931;-62
2022/08/20 08:31:40;;;;;;;;;;;24.90;99.90;;;;;;4214452;28;19939;-61
2022/08/20 08:33:42;;;;;;;;;;;24.50;99.90;;;;;;4213473;28;20042;-60
2022/08/20 08:35:46;;;;;;;;;;;24.80;99.90;;;;;;4218661;28;20019;-60
2022/08/20 08:37:48;;;;;;;;;;;25.00;99.90;;;;;;4223260;28;19929;-61
2022/08/20 08:39:50;;;;;;;;;;;25.20;99.90;;;;;;4221699;28;19947;-61
2022/08/20 08:41:56;;;;;;;;;;;25.50;99.90;;;;;;4217137;28;20376;-62
2022/08/20 08:44:09;;;;;;;;;;;25.40;99.90;;;;;;4211573;28;20439;-61
2022/08/20 08:46:12;;;;;;;;;;;25.70;99.90;;;;;;4213920;28;19935;-60
2022/08/20 08:48:17;;;;;;;;;;;25.70;99.90;;;;;;4213641;28;19928;-61
2022/08/20 08:50:24;;;;;;;;;;;25.70;99.90;;;;;;4213904;28;19975;-60
2022/08/20 08:52:49;;;;;;;;;;;25.70;99.90;;;;;;4209425;28;19982;-61
2022/08/20 08:54:52;;;;;;;;;;;26.00;99.90;;;;;;4206573;28;20431;-61
2022/08/20 08:56:54;;;;;;;;;;;26.00;99.90;;;;;;4195337;28;19929;-61
2022/08/20 08:58:59;;;;;;;;;;;25.90;99.90;;;;;;4213455;28;19928;-61
2022/08/20 09:01:03;;;;;;;;;;;26.00;99.90;;;;;;4201163;28;20418;-60
2022/08/20 09:03:16;;;;;;;;;;;26.20;99.90;;;;;;4212157;28;20356;-60
2022/08/20 09:05:19;;;;;;;;;;;26.70;99.90;;;;;;4213571;28;19924;-61
2022/08/20 09:07:23;;;;;;;;;;;26.50;99.90;;;;;;4213016;28;19932;-61
2022/08/20 09:09:27;;;;;;;;;;;26.80;99.90;;;;;;4213382;28;19959;-61
2022/08/20 09:11:30;;;;;;;;;;;27.00;99.90;;;;;;4212676;28;19928;-61
2022/08/20 09:13:32;;;;;;;;;;;27.10;99.90;;;;;;4213134;28;19938;-61
2022/08/20 09:15:34;;;;;;;;;;;27.00;99.90;;;;;;4213912;28;20351;-62
2022/08/20 09:17:36;;;;;;;;;;;27.00;99.90;;;;;;4215301;28;20444;-63
2022/08/20 09:19:38;;;;;;;;;;;27.20;99.90;;;;;;4204171;28;20562;-62
2022/08/20 09:21:40;;;;;;;;;;;27.30;99.90;;;;;;4208551;28;19989;-61
2022/08/20 09:23:42;;;;;;;;;;;26.80;99.90;;;;;;4210132;28;20019;-60
2022/08/20 09:25:45;;;;;;;;;;;26.60;99.90;;;;;;4204464;28;20118;-60
2022/08/20 09:27:47;;;;;;;;;;;26.70;99.90;;;;;;4211025;28;20049;-60
2022/08/20 09:29:49;;;;;;;;;;;26.90;99.90;;;;;;4222073;28;19951;-61
2022/08/20 09:32:01;;;;;;;;;;;26.90;99.90;;;;;;4208506;28;19971;-60
2022/08/20 09:34:04;;;;;;;;;;;26.70;99.90;;;;;;4203402;28;19924;-60
2022/08/20 09:36:06;;;;;;;;;;;26.90;99.90;;;;;;4208010;28;19938;-60
2022/08/20 09:38:28;;;;;;;;;;;27.30;99.90;;;;;;4220342;28;19977;-61
2022/08/20 09:40:30;;;;;;;;;;;27.10;99.90;;;;;;4211438;28;19939;-60
2022/08/20 09:42:33;;;;;;;;;;;27.00;99.90;;;;;;4226058;28;19976;-61
2022/08/20 09:44:41;;;;;;;;;;;27.30;99.90;;;;;;4213714;28;19954;-61
2022/08/20 09:46:43;;;;;;;;;;;27.10;99.90;;;;;;4215990;28;19969;-61
2022/08/20 09:48:44;;;;;;;;;;;26.70;99.90;;;;;;4199284;28;19933;-62
2022/08/20 09:50:47;;;;;;;;;;;27.30;99.90;;;;;;4211529;28;19924;-61
2022/08/20 09:52:51;;;;;;;;;;;27.30;99.90;;;;;;4207059;28;19990;-61
2022/08/20 09:54:56;;;;;;;;;;;27.40;99.90;;;;;;4205650;28;19924;-60
2022/08/20 09:57:00;;;;;;;;;;;26.90;99.90;;;;;;4199645;28;19924;-61
2022/08/20 09:59:02;;;;;;;;;;;27.20;99.90;;;;;;4212320;28;19927;-61
2022/08/20 10:01:06;;;;;;;;;;;27.80;99.90;;;;;;4209105;28;20311;-61
2022/08/20 10:03:15;;;;;;;;;;;27.80;99.90;;;;;;4183555;28;19951;-61
2022/08/20 10:05:17;;;;;;;;;;;27.30;99.90;;;;;;4217309;28;19927;-61
2022/08/20 10:07:19;;;;;;;;;;;27.20;99.90;;;;;;4204052;28;19923;-61
2022/08/20 10:09:21;;;;;;;;;;;27.70;99.90;;;;;;4212375;28;20384;-61
2022/08/20 10:11:23;;;;;;;;;;;28.00;99.90;;;;;;4194166;28;20426;-61
2022/08/20 10:13:25;;;;;;;;;;;27.70;99.90;;;;;;4205310;28;20277;-61
2022/08/20 10:15:27;;;;;;;;;;;27.80;99.90;;;;;;4213014;28;19928;-61
2022/08/20 10:17:29;;;;;;;;;;;27.80;99.90;;;;;;4212404;28;20019;-61
2022/08/20 10:19:31;;;;;;;;;;;27.70;99.90;;;;;;4212356;28;19935;-61
2022/08/20 10:21:33;;;;;;;;;;;27.60;99.90;;;;;;4193770;28;19931;-62
2022/08/20 10:23:39;;;;;;;;;;;27.50;99.90;;;;;;4205195;28;20023;-62
2022/08/20 10:25:41;;;;;;;;;;;27.80;99.90;;;;;;4207450;28;19932;-61
2022/08/20 10:27:44;;;;;;;;;;;27.90;99.90;;;;;;4212448;28;19928;-61
2022/08/20 10:29:46;;;;;;;;;;;27.70;99.90;;;;;;4205659;28;19928;-62
2022/08/20 10:31:47;;;;;;;;;;;27.40;99.90;;;;;;4209147;28;19978;-61
2022/08/20 10:33:49;;;;;;;;;;;27.50;99.90;;;;;;4188662;28;20303;-62
2022/08/20 10:35:51;;;;;;;;;;;27.70;99.90;;;;;;4204261;28;19928;-61
2022/08/20 10:37:56;;;;;;;;;;;27.80;99.90;;;;;;4207177;28;19963;-63
2022/08/20 10:39:58;;;;;;;;;;;27.90;99.90;;;;;;4205198;28;20023;-61
2022/08/20 10:42:00;;;;;;;;;;;27.80;99.90;;;;;;4205519;28;19935;-61
2022/08/20 10:44:02;;;;;;;;;;;27.70;99.90;;;;;;4206631;28;20458;-60
2022/08/20 10:46:07;;;;;;;;;;;28.00;99.90;;;;;;4210286;28;20391;-61
2022/08/20 10:48:08;;;;;;;;;;;28.20;99.90;;;;;;4213401;28;19945;-62
2022/08/20 10:50:14;;;;;;;;;;;28.20;99.90;;;;;;4208364;28;20386;-61
2022/08/20 10:52:16;;;;;;;;;;;28.20;99.90;;;;;;4209760;28;19966;-61
2022/08/20 10:54:18;;;;;;;;;;;28.00;99.90;;;;;;4190788;28;19929;-61
2022/08/20 10:56:20;;;;;;;;;;;28.30;99.90;;;;;;4202663;28;19939;-61
2022/08/20 10:58:23;;;;;;;;;;;28.50;99.90;;;;;;4208449;28;20014;-61
2022/08/20 11:00:25;;;;;;;;;;;28.60;99.90;;;;;;4201903;28;19958;-61
2022/08/20 11:02:27;;;;;;;;;;;28.50;99.90;;;;;;4208520;28;20027;-61
2022/08/20 11:04:29;;;;;;;;;;;28.50;99.90;;;;;;4205585;28;19932;-63
2022/08/20 11:06:31;;;;;;;;;;;28.40;99.90;;;;;;4208367;28;19973;-61
2022/08/20 11:08:33;;;;;;;;;;;28.50;99.90;;;;;;4198764;28;19924;-61
2022/08/20 11:10:37;;;;;;;;;;;28.50;99.90;;;;;;4205481;28;19928;-61
2022/08/20 11:12:39;;;;;;;;;;;28.30;99.90;;;;;;4211866;28;20011;-61
2022/08/20 11:14:41;;;;;;;;;;;28.40;99.90;;;;;;4178082;28;19957;-61
2022/08/20 11:16:43;;;;;;;;;;;28.90;99.90;;;;;;4205874;28;19963;-62
2022/08/20 11:18:45;;;;;;;;;;;29.10;99.90;;;;;;4197506;28;20015;-61
2022/08/20 11:20:48;;;;;;;;;;;28.90;99.90;;;;;;4211655;28;20541;-61
2022/08/20 11:22:50;;;;;;;;;;;28.70;99.90;;;;;;4211497;28;20027;-61
2022/08/20 11:24:52;;;;;;;;;;;28.40;99.90;;;;;;4211943;28;20008;-61
2022/08/20 11:26:55;;;;;;;;;;;28.70;99.90;;;;;;4211806;28;19932;-61
2022/08/20 11:28:57;;;;;;;;;;;28.80;99.90;;;;;;4211789;28;19924;-61
2022/08/20 11:31:00;;;;;;;;;;;29.40;99.90;;;;;;4212012;28;20023;-61
2022/08/20 11:33:03;;;;;;;;;;;29.40;99.70;;;;;;4211321;28;20406;-63
2022/08/20 11:35:05;;;;;;;;;;;29.30;99.90;;;;;;4202499;28;20037;-62
2022/08/20 11:37:25;;;;;;;;;;;29.00;99.90;;;;;;4198174;28;19924;-61
2022/08/20 11:39:27;;;;;;;;;;;29.20;99.60;;;;;;4196827;28;20373;-62
2022/08/20 11:41:29;;;;;;;;;;;29.30;99.40;;;;;;4214954;28;20391;-61
2022/08/20 11:43:31;;;;;;;;;;;29.40;99.90;;;;;;4214689;28;20367;-61
2022/08/20 11:45:33;;;;;;;;;;;29.50;98.80;;;;;;4214967;28;19928;-61
2022/08/20 11:47:38;;;;;;;;;;;29.20;99.90;;;;;;4214134;28;20307;-63
2022/08/20 11:49:40;;;;;;;;;;;29.80;98.60;;;;;;4215311;28;20036;-61
2022/08/20 11:51:42;;;;;;;;;;;30.00;99.90;;;;;;4214817;28;19963;-61
2022/08/20 11:53:50;;;;;;;;;;;29.80;98.40;;;;;;4217183;28;19931;-61
2022/08/20 11:55:52;;;;;;;;;;;29.90;98.00;;;;;;4223031;28;19997;-61
2022/08/20 11:57:54;;;;;;;;;;;30.00;97.80;;;;;;4210758;28;19924;-61
2022/08/20 11:59:58;;;;;;;;;;;29.50;98.00;;;;;;4189551;28;19975;-61
2022/08/20 12:02:00;;;;;;;;;;;29.70;97.80;;;;;;4211844;28;20026;-60
2022/08/20 12:04:04;;;;;;;;;;;30.10;99.90;;;;;;4203308;28;19924;-61
2022/08/20 12:06:06;;;;;;;;;;;30.20;99.60;;;;;;4214915;28;19939;-61
2022/08/20 12:08:08;;;;;;;;;;;30.30;97.50;;;;;;4213608;28;19966;-61